KNAK

United States Naval Academy Airport

Annapolis, Maryland, USA
METAR KNAK 260354Z AUTO 18005KT 10SM CLR 24/19 A2990 RMK AO2 SLP126 T02440194
Observed Flight Rules
May-26 @ 03:54 UTC (24 minutes ago) Visual Flight Rules
Wind Visibility Clouds
180° at 5 knots 10 miles
  • Clear skies
Temperatures Readings
Current 24°C / 75°F
Dewpoint 19°C / 66°F
Humidity 74%
Altimeter 29.9" Hg
Pressure 1012.6 hPa
Elevation 2
METAR KNAK 260354Z AUTO 18005KT 10SM CLR 24/19 A2990 RMK AO2 SLP126 T02440194
Observed Flight Rules
May-26 @ 03:54 UTC
(24 minutes ago)
VFR
Wind Visibility
180° at 5 knots 10 miles
Clouds
  • Clear skies
Temperature Dewpoint
24°C / 75°F 19°C / 66°F
Humidity Altimeter Pressure
74% 29.9" Hg 1012.6 hPa